<?xml version="1.0" encoding="UTF-8" standalone="no" ?>
<gpx xmlns="http://www.topografix.com/GPX/1/1" xmlns:xsi="http://www.w3.org/2001/XMLSchema-instance" xsi:schemaLocation="http://www.topografix.com/GPX/1/1 http://www.topografix.com/GPX/1/1/gpx.xsd" version="1.1" creator="VisuGPX - https://www.visugpx.com">
  <metadata>
    <name>Randonnée du 24/09/2024 à 14:02</name>
  </metadata>
  <trk>
    <name><![CDATA[Randonnée du 24/09/2024 à 14:02]]></name>
    <trkseg>
      <trkpt lat="44.13884" lon="4.98125">
        <ele>134</ele>
        <time>2024-09-24T14:02:15+02:00</time>
      </trkpt>
      <trkpt lat="44.13901" lon="4.98147">
        <ele>125</ele>
        <time>2024-09-24T14:02:45+02:00</time>
      </trkpt>
      <trkpt lat="44.13925" lon="4.98151">
        <ele>128</ele>
        <time>2024-09-24T14:03:35+02:00</time>
      </trkpt>
      <trkpt lat="44.13952" lon="4.98162">
        <ele>126</ele>
        <time>2024-09-24T14:04:49+02:00</time>
      </trkpt>
      <trkpt lat="44.13974" lon="4.9816">
        <ele>126</ele>
        <time>2024-09-24T14:05:49+02:00</time>
      </trkpt>
      <trkpt lat="44.13992" lon="4.98175">
        <ele>123</ele>
        <time>2024-09-24T14:06:12+02:00</time>
      </trkpt>
      <trkpt lat="44.14011" lon="4.98176">
        <ele>122</ele>
        <time>2024-09-24T14:06:39+02:00</time>
      </trkpt>
      <trkpt lat="44.14034" lon="4.98171">
        <ele>122</ele>
        <time>2024-09-24T14:07:11+02:00</time>
      </trkpt>
      <trkpt lat="44.14057" lon="4.98178">
        <ele>121</ele>
        <time>2024-09-24T14:07:35+02:00</time>
      </trkpt>
      <trkpt lat="44.14093" lon="4.98169">
        <ele>121</ele>
        <time>2024-09-24T14:08:03+02:00</time>
      </trkpt>
      <trkpt lat="44.14187" lon="4.98097">
        <ele>122</ele>
        <time>2024-09-24T14:10:17+02:00</time>
      </trkpt>
      <trkpt lat="44.14299" lon="4.98094">
        <ele>124</ele>
        <time>2024-09-24T14:08:12+02:00</time>
      </trkpt>
      <trkpt lat="44.1433" lon="4.98095">
        <ele>124</ele>
        <time>2024-09-24T14:08:35+02:00</time>
      </trkpt>
      <trkpt lat="44.14365" lon="4.98095">
        <ele>125</ele>
        <time>2024-09-24T14:09:05+02:00</time>
      </trkpt>
      <trkpt lat="44.14389" lon="4.98104">
        <ele>127</ele>
        <time>2024-09-24T14:09:45+02:00</time>
      </trkpt>
      <trkpt lat="44.14422" lon="4.98106">
        <ele>128</ele>
        <time>2024-09-24T14:10:40+02:00</time>
      </trkpt>
      <trkpt lat="44.14449" lon="4.9811">
        <ele>125</ele>
        <time>2024-09-24T14:11:06+02:00</time>
      </trkpt>
      <trkpt lat="44.14473" lon="4.98121">
        <ele>126</ele>
        <time>2024-09-24T14:11:57+02:00</time>
      </trkpt>
      <trkpt lat="44.14498" lon="4.98127">
        <ele>124</ele>
        <time>2024-09-24T14:12:26+02:00</time>
      </trkpt>
      <trkpt lat="44.14577" lon="4.98176">
        <ele>123</ele>
        <time>2024-09-24T14:12:36+02:00</time>
      </trkpt>
      <trkpt lat="44.14612" lon="4.9818">
        <ele>125</ele>
        <time>2024-09-24T14:13:08+02:00</time>
      </trkpt>
      <trkpt lat="44.14652" lon="4.9819">
        <ele>121</ele>
        <time>2024-09-24T14:13:34+02:00</time>
      </trkpt>
      <trkpt lat="44.1468" lon="4.982">
        <ele>120</ele>
        <time>2024-09-24T14:14:23+02:00</time>
      </trkpt>
      <trkpt lat="44.14746" lon="4.98224">
        <ele>119</ele>
        <time>2024-09-24T14:14:53+02:00</time>
      </trkpt>
      <trkpt lat="44.14769" lon="4.9824">
        <ele>120</ele>
        <time>2024-09-24T14:15:13+02:00</time>
      </trkpt>
      <trkpt lat="44.148" lon="4.98263">
        <ele>121</ele>
        <time>2024-09-24T14:15:40+02:00</time>
      </trkpt>
      <trkpt lat="44.1483" lon="4.9828">
        <ele>122</ele>
        <time>2024-09-24T14:16:19+02:00</time>
      </trkpt>
      <trkpt lat="44.14855" lon="4.98293">
        <ele>121</ele>
        <time>2024-09-24T14:16:59+02:00</time>
      </trkpt>
      <trkpt lat="44.14878" lon="4.98302">
        <ele>121</ele>
        <time>2024-09-24T14:17:37+02:00</time>
      </trkpt>
      <trkpt lat="44.14898" lon="4.98325">
        <ele>121</ele>
        <time>2024-09-24T14:18:19+02:00</time>
      </trkpt>
      <trkpt lat="44.14905" lon="4.98292">
        <ele>120</ele>
        <time>2024-09-24T14:19:11+02:00</time>
      </trkpt>
      <trkpt lat="44.1491" lon="4.98258">
        <ele>120</ele>
        <time>2024-09-24T14:20:25+02:00</time>
      </trkpt>
      <trkpt lat="44.1494" lon="4.98139">
        <ele>120</ele>
        <time>2024-09-24T14:20:35+02:00</time>
      </trkpt>
      <trkpt lat="44.14942" lon="4.98103">
        <ele>118</ele>
        <time>2024-09-24T14:20:55+02:00</time>
      </trkpt>
      <trkpt lat="44.14949" lon="4.98056">
        <ele>117</ele>
        <time>2024-09-24T14:21:24+02:00</time>
      </trkpt>
      <trkpt lat="44.14951" lon="4.98023">
        <ele>115</ele>
        <time>2024-09-24T14:22:04+02:00</time>
      </trkpt>
      <trkpt lat="44.1495" lon="4.9799">
        <ele>115</ele>
        <time>2024-09-24T14:22:58+02:00</time>
      </trkpt>
      <trkpt lat="44.14954" lon="4.97949">
        <ele>120</ele>
        <time>2024-09-24T14:23:26+02:00</time>
      </trkpt>
      <trkpt lat="44.14947" lon="4.97897">
        <ele>117</ele>
        <time>2024-09-24T14:24:16+02:00</time>
      </trkpt>
      <trkpt lat="44.14911" lon="4.97873">
        <ele>114</ele>
        <time>2024-09-24T14:25:14+02:00</time>
      </trkpt>
      <trkpt lat="44.1493" lon="4.97801">
        <ele>112</ele>
        <time>2024-09-24T14:26:17+02:00</time>
      </trkpt>
      <trkpt lat="44.1496" lon="4.97715">
        <ele>112</ele>
        <time>2024-09-24T14:25:48+02:00</time>
      </trkpt>
      <trkpt lat="44.14974" lon="4.97689">
        <ele>112</ele>
        <time>2024-09-24T14:26:18+02:00</time>
      </trkpt>
      <trkpt lat="44.14992" lon="4.97658">
        <ele>112</ele>
        <time>2024-09-24T14:26:38+02:00</time>
      </trkpt>
      <trkpt lat="44.15006" lon="4.97629">
        <ele>112</ele>
        <time>2024-09-24T14:27:18+02:00</time>
      </trkpt>
      <trkpt lat="44.15021" lon="4.976">
        <ele>112</ele>
        <time>2024-09-24T14:28:06+02:00</time>
      </trkpt>
      <trkpt lat="44.15084" lon="4.97501">
        <ele>113</ele>
        <time>2024-09-24T14:28:28+02:00</time>
      </trkpt>
      <trkpt lat="44.15099" lon="4.97469">
        <ele>114</ele>
        <time>2024-09-24T14:28:48+02:00</time>
      </trkpt>
      <trkpt lat="44.1511" lon="4.97434">
        <ele>114</ele>
        <time>2024-09-24T14:29:08+02:00</time>
      </trkpt>
      <trkpt lat="44.15124" lon="4.974">
        <ele>116</ele>
        <time>2024-09-24T14:29:48+02:00</time>
      </trkpt>
      <trkpt lat="44.15138" lon="4.97372">
        <ele>116</ele>
        <time>2024-09-24T14:30:09+02:00</time>
      </trkpt>
      <trkpt lat="44.15148" lon="4.9734">
        <ele>117</ele>
        <time>2024-09-24T14:30:26+02:00</time>
      </trkpt>
      <trkpt lat="44.15159" lon="4.97312">
        <ele>118</ele>
        <time>2024-09-24T14:31:06+02:00</time>
      </trkpt>
      <trkpt lat="44.15191" lon="4.97233">
        <ele>120</ele>
        <time>2024-09-24T14:31:27+02:00</time>
      </trkpt>
      <trkpt lat="44.15198" lon="4.97278">
        <ele>122</ele>
        <time>2024-09-24T14:32:23+02:00</time>
      </trkpt>
      <trkpt lat="44.15217" lon="4.97335">
        <ele>119</ele>
        <time>2024-09-24T14:32:57+02:00</time>
      </trkpt>
      <trkpt lat="44.15207" lon="4.97303">
        <ele>119</ele>
        <time>2024-09-24T14:33:42+02:00</time>
      </trkpt>
      <trkpt lat="44.15189" lon="4.97247">
        <ele>120</ele>
        <time>2024-09-24T14:34:12+02:00</time>
      </trkpt>
      <trkpt lat="44.15203" lon="4.97198">
        <ele>118</ele>
        <time>2024-09-24T14:35:22+02:00</time>
      </trkpt>
      <trkpt lat="44.15254" lon="4.97087">
        <ele>121</ele>
        <time>2024-09-24T14:35:52+02:00</time>
      </trkpt>
      <trkpt lat="44.15269" lon="4.97059">
        <ele>119</ele>
        <time>2024-09-24T14:36:08+02:00</time>
      </trkpt>
      <trkpt lat="44.15277" lon="4.97027">
        <ele>118</ele>
        <time>2024-09-24T14:36:30+02:00</time>
      </trkpt>
      <trkpt lat="44.15292" lon="4.96994">
        <ele>119</ele>
        <time>2024-09-24T14:36:50+02:00</time>
      </trkpt>
      <trkpt lat="44.15305" lon="4.96967">
        <ele>117</ele>
        <time>2024-09-24T14:37:30+02:00</time>
      </trkpt>
      <trkpt lat="44.15321" lon="4.96936">
        <ele>115</ele>
        <time>2024-09-24T14:38:18+02:00</time>
      </trkpt>
      <trkpt lat="44.15336" lon="4.96905">
        <ele>113</ele>
        <time>2024-09-24T14:38:48+02:00</time>
      </trkpt>
      <trkpt lat="44.15353" lon="4.96868">
        <ele>111</ele>
        <time>2024-09-24T14:39:15+02:00</time>
      </trkpt>
      <trkpt lat="44.15382" lon="4.96813">
        <ele>116</ele>
        <time>2024-09-24T14:41:02+02:00</time>
      </trkpt>
      <trkpt lat="44.15408" lon="4.96701">
        <ele>110</ele>
        <time>2024-09-24T14:39:45+02:00</time>
      </trkpt>
      <trkpt lat="44.15424" lon="4.96676">
        <ele>106</ele>
        <time>2024-09-24T14:40:05+02:00</time>
      </trkpt>
      <trkpt lat="44.1546" lon="4.96629">
        <ele>102</ele>
        <time>2024-09-24T14:40:28+02:00</time>
      </trkpt>
      <trkpt lat="44.15489" lon="4.96603">
        <ele>102</ele>
        <time>2024-09-24T14:40:38+02:00</time>
      </trkpt>
      <trkpt lat="44.15465" lon="4.96624">
        <ele>99</ele>
        <time>2024-09-24T14:40:47+02:00</time>
      </trkpt>
      <trkpt lat="44.15535" lon="4.96542">
        <ele>99</ele>
        <time>2024-09-24T14:40:57+02:00</time>
      </trkpt>
      <trkpt lat="44.15561" lon="4.96513">
        <ele>98</ele>
        <time>2024-09-24T14:41:07+02:00</time>
      </trkpt>
      <trkpt lat="44.15584" lon="4.96489">
        <ele>96</ele>
        <time>2024-09-24T14:41:17+02:00</time>
      </trkpt>
      <trkpt lat="44.15596" lon="4.96455">
        <ele>97</ele>
        <time>2024-09-24T14:41:37+02:00</time>
      </trkpt>
      <trkpt lat="44.15604" lon="4.96419">
        <ele>96</ele>
        <time>2024-09-24T14:41:56+02:00</time>
      </trkpt>
      <trkpt lat="44.1561" lon="4.96388">
        <ele>95</ele>
        <time>2024-09-24T14:42:15+02:00</time>
      </trkpt>
      <trkpt lat="44.15618" lon="4.96351">
        <ele>96</ele>
        <time>2024-09-24T14:43:44+02:00</time>
      </trkpt>
      <trkpt lat="44.15624" lon="4.9631">
        <ele>95</ele>
        <time>2024-09-24T14:44:15+02:00</time>
      </trkpt>
      <trkpt lat="44.15657" lon="4.96139">
        <ele>94</ele>
        <time>2024-09-24T14:44:40+02:00</time>
      </trkpt>
      <trkpt lat="44.15664" lon="4.96099">
        <ele>95</ele>
        <time>2024-09-24T14:45:00+02:00</time>
      </trkpt>
      <trkpt lat="44.15671" lon="4.9606">
        <ele>96</ele>
        <time>2024-09-24T14:45:20+02:00</time>
      </trkpt>
      <trkpt lat="44.15678" lon="4.96024">
        <ele>96</ele>
        <time>2024-09-24T14:46:00+02:00</time>
      </trkpt>
      <trkpt lat="44.15688" lon="4.95987">
        <ele>98</ele>
        <time>2024-09-24T14:46:50+02:00</time>
      </trkpt>
      <trkpt lat="44.15696" lon="4.95957">
        <ele>98</ele>
        <time>2024-09-24T14:47:20+02:00</time>
      </trkpt>
      <trkpt lat="44.15718" lon="4.95903">
        <ele>98</ele>
        <time>2024-09-24T14:47:58+02:00</time>
      </trkpt>
      <trkpt lat="44.15698" lon="4.95938">
        <ele>99</ele>
        <time>2024-09-24T14:49:21+02:00</time>
      </trkpt>
      <trkpt lat="44.15679" lon="4.9603">
        <ele>100</ele>
        <time>2024-09-24T15:02:45+02:00</time>
      </trkpt>
      <trkpt lat="44.15616" lon="4.96366">
        <ele>98</ele>
        <time>2024-09-24T15:06:19+02:00</time>
      </trkpt>
      <trkpt lat="44.15606" lon="4.96407">
        <ele>97</ele>
        <time>2024-09-24T15:06:45+02:00</time>
      </trkpt>
      <trkpt lat="44.15595" lon="4.96448">
        <ele>97</ele>
        <time>2024-09-24T15:07:10+02:00</time>
      </trkpt>
      <trkpt lat="44.15577" lon="4.96427">
        <ele>97</ele>
        <time>2024-09-24T15:07:59+02:00</time>
      </trkpt>
      <trkpt lat="44.1549" lon="4.96374">
        <ele>95</ele>
        <time>2024-09-24T15:09:09+02:00</time>
      </trkpt>
      <trkpt lat="44.15466" lon="4.96357">
        <ele>96</ele>
        <time>2024-09-24T15:09:29+02:00</time>
      </trkpt>
      <trkpt lat="44.15444" lon="4.96345">
        <ele>96</ele>
        <time>2024-09-24T15:09:50+02:00</time>
      </trkpt>
      <trkpt lat="44.15411" lon="4.96323">
        <ele>94</ele>
        <time>2024-09-24T15:10:16+02:00</time>
      </trkpt>
      <trkpt lat="44.1539" lon="4.96304">
        <ele>94</ele>
        <time>2024-09-24T15:10:56+02:00</time>
      </trkpt>
      <trkpt lat="44.15365" lon="4.96284">
        <ele>94</ele>
        <time>2024-09-24T15:11:44+02:00</time>
      </trkpt>
      <trkpt lat="44.15343" lon="4.96267">
        <ele>94</ele>
        <time>2024-09-24T15:12:13+02:00</time>
      </trkpt>
      <trkpt lat="44.15321" lon="4.96257">
        <ele>95</ele>
        <time>2024-09-24T15:12:42+02:00</time>
      </trkpt>
      <trkpt lat="44.15225" lon="4.96197">
        <ele>93</ele>
        <time>2024-09-24T15:12:59+02:00</time>
      </trkpt>
      <trkpt lat="44.15203" lon="4.96178">
        <ele>91</ele>
        <time>2024-09-24T15:13:19+02:00</time>
      </trkpt>
      <trkpt lat="44.1517" lon="4.96161">
        <ele>92</ele>
        <time>2024-09-24T15:13:43+02:00</time>
      </trkpt>
      <trkpt lat="44.15143" lon="4.96148">
        <ele>93</ele>
        <time>2024-09-24T15:14:25+02:00</time>
      </trkpt>
      <trkpt lat="44.15115" lon="4.96126">
        <ele>95</ele>
        <time>2024-09-24T15:14:57+02:00</time>
      </trkpt>
      <trkpt lat="44.15035" lon="4.96084">
        <ele>96</ele>
        <time>2024-09-24T15:15:37+02:00</time>
      </trkpt>
      <trkpt lat="44.15011" lon="4.96068">
        <ele>98</ele>
        <time>2024-09-24T15:15:56+02:00</time>
      </trkpt>
      <trkpt lat="44.14982" lon="4.96048">
        <ele>102</ele>
        <time>2024-09-24T15:16:18+02:00</time>
      </trkpt>
      <trkpt lat="44.14953" lon="4.96055">
        <ele>102</ele>
        <time>2024-09-24T15:16:58+02:00</time>
      </trkpt>
      <trkpt lat="44.14923" lon="4.96062">
        <ele>106</ele>
        <time>2024-09-24T15:17:48+02:00</time>
      </trkpt>
      <trkpt lat="44.14844" lon="4.96076">
        <ele>108</ele>
        <time>2024-09-24T15:18:08+02:00</time>
      </trkpt>
      <trkpt lat="44.14821" lon="4.96096">
        <ele>106</ele>
        <time>2024-09-24T15:18:52+02:00</time>
      </trkpt>
      <trkpt lat="44.14814" lon="4.96129">
        <ele>108</ele>
        <time>2024-09-24T15:19:12+02:00</time>
      </trkpt>
      <trkpt lat="44.148" lon="4.96171">
        <ele>108</ele>
        <time>2024-09-24T15:19:44+02:00</time>
      </trkpt>
      <trkpt lat="44.1478" lon="4.96138">
        <ele>107</ele>
        <time>2024-09-24T15:21:03+02:00</time>
      </trkpt>
      <trkpt lat="44.14765" lon="4.96103">
        <ele>107</ele>
        <time>2024-09-24T15:22:03+02:00</time>
      </trkpt>
      <trkpt lat="44.14764" lon="4.96072">
        <ele>108</ele>
        <time>2024-09-24T15:24:35+02:00</time>
      </trkpt>
      <trkpt lat="44.14742" lon="4.96081">
        <ele>108</ele>
        <time>2024-09-24T15:25:07+02:00</time>
      </trkpt>
      <trkpt lat="44.14677" lon="4.9604">
        <ele>105</ele>
        <time>2024-09-24T15:26:28+02:00</time>
      </trkpt>
      <trkpt lat="44.146" lon="4.96026">
        <ele>108</ele>
        <time>2024-09-24T15:27:08+02:00</time>
      </trkpt>
      <trkpt lat="44.14566" lon="4.9602">
        <ele>109</ele>
        <time>2024-09-24T15:27:34+02:00</time>
      </trkpt>
      <trkpt lat="44.14537" lon="4.96019">
        <ele>111</ele>
        <time>2024-09-24T15:28:14+02:00</time>
      </trkpt>
      <trkpt lat="44.14502" lon="4.96016">
        <ele>103</ele>
        <time>2024-09-24T15:28:39+02:00</time>
      </trkpt>
      <trkpt lat="44.1449" lon="4.96048">
        <ele>112</ele>
        <time>2024-09-24T15:29:31+02:00</time>
      </trkpt>
      <trkpt lat="44.14466" lon="4.96067">
        <ele>112</ele>
        <time>2024-09-24T15:30:09+02:00</time>
      </trkpt>
      <trkpt lat="44.14375" lon="4.96176">
        <ele>114</ele>
        <time>2024-09-24T15:30:31+02:00</time>
      </trkpt>
      <trkpt lat="44.14356" lon="4.96204">
        <ele>115</ele>
        <time>2024-09-24T15:30:51+02:00</time>
      </trkpt>
      <trkpt lat="44.14333" lon="4.96223">
        <ele>115</ele>
        <time>2024-09-24T15:31:11+02:00</time>
      </trkpt>
      <trkpt lat="44.1432" lon="4.96269">
        <ele>116</ele>
        <time>2024-09-24T15:31:39+02:00</time>
      </trkpt>
      <trkpt lat="44.14309" lon="4.96298">
        <ele>117</ele>
        <time>2024-09-24T15:32:49+02:00</time>
      </trkpt>
      <trkpt lat="44.14276" lon="4.96395">
        <ele>118</ele>
        <time>2024-09-24T15:32:54+02:00</time>
      </trkpt>
      <trkpt lat="44.14265" lon="4.96437">
        <ele>117</ele>
        <time>2024-09-24T15:33:16+02:00</time>
      </trkpt>
      <trkpt lat="44.14256" lon="4.96473">
        <ele>118</ele>
        <time>2024-09-24T15:33:36+02:00</time>
      </trkpt>
      <trkpt lat="44.14249" lon="4.96511">
        <ele>116</ele>
        <time>2024-09-24T15:33:56+02:00</time>
      </trkpt>
      <trkpt lat="44.14239" lon="4.96542">
        <ele>114</ele>
        <time>2024-09-24T15:34:42+02:00</time>
      </trkpt>
      <trkpt lat="44.14227" lon="4.96577">
        <ele>111</ele>
        <time>2024-09-24T15:35:04+02:00</time>
      </trkpt>
      <trkpt lat="44.14287" lon="4.96588">
        <ele>114</ele>
        <time>2024-09-24T15:35:26+02:00</time>
      </trkpt>
      <trkpt lat="44.14279" lon="4.96631">
        <ele>112</ele>
        <time>2024-09-24T15:36:42+02:00</time>
      </trkpt>
      <trkpt lat="44.14234" lon="4.96644">
        <ele>110</ele>
        <time>2024-09-24T15:37:44+02:00</time>
      </trkpt>
      <trkpt lat="44.14211" lon="4.96658">
        <ele>109</ele>
        <time>2024-09-24T15:38:45+02:00</time>
      </trkpt>
      <trkpt lat="44.14133" lon="4.96695">
        <ele>104</ele>
        <time>2024-09-24T15:40:20+02:00</time>
      </trkpt>
      <trkpt lat="44.14156" lon="4.96738">
        <ele>96</ele>
        <time>2024-09-24T15:39:12+02:00</time>
      </trkpt>
      <trkpt lat="44.14178" lon="4.96767">
        <ele>94</ele>
        <time>2024-09-24T15:40:41+02:00</time>
      </trkpt>
      <trkpt lat="44.1416" lon="4.96791">
        <ele>94</ele>
        <time>2024-09-24T15:41:21+02:00</time>
      </trkpt>
      <trkpt lat="44.14148" lon="4.96828">
        <ele>93</ele>
        <time>2024-09-24T15:42:38+02:00</time>
      </trkpt>
      <trkpt lat="44.14112" lon="4.96978">
        <ele>94</ele>
        <time>2024-09-24T15:42:48+02:00</time>
      </trkpt>
      <trkpt lat="44.14112" lon="4.9701">
        <ele>94</ele>
        <time>2024-09-24T15:43:08+02:00</time>
      </trkpt>
      <trkpt lat="44.14113" lon="4.97044">
        <ele>94</ele>
        <time>2024-09-24T15:43:28+02:00</time>
      </trkpt>
      <trkpt lat="44.14109" lon="4.97081">
        <ele>96</ele>
        <time>2024-09-24T15:43:48+02:00</time>
      </trkpt>
      <trkpt lat="44.14101" lon="4.9712">
        <ele>96</ele>
        <time>2024-09-24T15:44:33+02:00</time>
      </trkpt>
      <trkpt lat="44.14094" lon="4.97158">
        <ele>97</ele>
        <time>2024-09-24T15:45:23+02:00</time>
      </trkpt>
      <trkpt lat="44.14089" lon="4.97199">
        <ele>96</ele>
        <time>2024-09-24T15:46:13+02:00</time>
      </trkpt>
      <trkpt lat="44.14079" lon="4.9723">
        <ele>96</ele>
        <time>2024-09-24T15:46:53+02:00</time>
      </trkpt>
      <trkpt lat="44.14075" lon="4.97341">
        <ele>97</ele>
        <time>2024-09-24T15:47:43+02:00</time>
      </trkpt>
      <trkpt lat="44.13978" lon="4.97318">
        <ele>98</ele>
        <time>2024-09-24T15:48:31+02:00</time>
      </trkpt>
      <trkpt lat="44.13966" lon="4.97247">
        <ele>97</ele>
        <time>2024-09-24T15:48:53+02:00</time>
      </trkpt>
      <trkpt lat="44.13942" lon="4.97248">
        <ele>97</ele>
        <time>2024-09-24T15:49:13+02:00</time>
      </trkpt>
      <trkpt lat="44.13916" lon="4.97245">
        <ele>99</ele>
        <time>2024-09-24T15:49:33+02:00</time>
      </trkpt>
      <trkpt lat="44.13889" lon="4.97241">
        <ele>100</ele>
        <time>2024-09-24T15:50:13+02:00</time>
      </trkpt>
      <trkpt lat="44.13866" lon="4.97232">
        <ele>103</ele>
        <time>2024-09-24T15:51:12+02:00</time>
      </trkpt>
      <trkpt lat="44.13841" lon="4.9724">
        <ele>106</ele>
        <time>2024-09-24T15:51:52+02:00</time>
      </trkpt>
      <trkpt lat="44.13796" lon="4.97205">
        <ele>95</ele>
        <time>2024-09-24T15:52:34+02:00</time>
      </trkpt>
      <trkpt lat="44.13765" lon="4.97227">
        <ele>100</ele>
        <time>2024-09-24T15:53:04+02:00</time>
      </trkpt>
      <trkpt lat="44.13769" lon="4.97276">
        <ele>111</ele>
        <time>2024-09-24T15:53:46+02:00</time>
      </trkpt>
      <trkpt lat="44.13724" lon="4.97311">
        <ele>110</ele>
        <time>2024-09-24T15:54:46+02:00</time>
      </trkpt>
      <trkpt lat="44.13725" lon="4.97401">
        <ele>112</ele>
        <time>2024-09-24T15:54:06+02:00</time>
      </trkpt>
      <trkpt lat="44.13728" lon="4.97441">
        <ele>113</ele>
        <time>2024-09-24T15:54:26+02:00</time>
      </trkpt>
      <trkpt lat="44.13736" lon="4.97472">
        <ele>113</ele>
        <time>2024-09-24T15:54:46+02:00</time>
      </trkpt>
      <trkpt lat="44.13742" lon="4.97504">
        <ele>113</ele>
        <time>2024-09-24T15:55:06+02:00</time>
      </trkpt>
      <trkpt lat="44.13752" lon="4.97545">
        <ele>112</ele>
        <time>2024-09-24T15:55:54+02:00</time>
      </trkpt>
      <trkpt lat="44.13762" lon="4.97576">
        <ele>110</ele>
        <time>2024-09-24T15:56:24+02:00</time>
      </trkpt>
      <trkpt lat="44.13787" lon="4.97576">
        <ele>109</ele>
        <time>2024-09-24T15:58:15+02:00</time>
      </trkpt>
      <trkpt lat="44.13885" lon="4.97622">
        <ele>109</ele>
        <time>2024-09-24T15:59:34+02:00</time>
      </trkpt>
      <trkpt lat="44.1391" lon="4.97633">
        <ele>110</ele>
        <time>2024-09-24T15:59:54+02:00</time>
      </trkpt>
      <trkpt lat="44.13925" lon="4.97657">
        <ele>111</ele>
        <time>2024-09-24T16:00:14+02:00</time>
      </trkpt>
      <trkpt lat="44.13937" lon="4.9769">
        <ele>113</ele>
        <time>2024-09-24T16:00:35+02:00</time>
      </trkpt>
      <trkpt lat="44.13942" lon="4.97731">
        <ele>116</ele>
        <time>2024-09-24T16:01:24+02:00</time>
      </trkpt>
      <trkpt lat="44.13949" lon="4.97763">
        <ele>108</ele>
        <time>2024-09-24T16:01:55+02:00</time>
      </trkpt>
      <trkpt lat="44.13917" lon="4.97825">
        <ele>109</ele>
        <time>2024-09-24T16:02:55+02:00</time>
      </trkpt>
      <trkpt lat="44.13881" lon="4.97872">
        <ele>111</ele>
        <time>2024-09-24T16:04:12+02:00</time>
      </trkpt>
      <trkpt lat="44.13877" lon="4.97952">
        <ele>122</ele>
        <time>2024-09-24T16:03:24+02:00</time>
      </trkpt>
      <trkpt lat="44.13885" lon="4.97993">
        <ele>120</ele>
        <time>2024-09-24T16:03:45+02:00</time>
      </trkpt>
      <trkpt lat="44.13891" lon="4.9804">
        <ele>124</ele>
        <time>2024-09-24T16:04:15+02:00</time>
      </trkpt>
      <trkpt lat="44.13882" lon="4.9807">
        <ele>121</ele>
        <time>2024-09-24T16:04:55+02:00</time>
      </trkpt>
    </trkseg>
  </trk>
</gpx>